createdAt,value
2018-04-11T00:00:01.546Z,99427.48
2018-04-11T00:02:29.072Z,99431.09
2018-04-11T00:04:56.549Z,99426.26
2018-04-11T00:07:24.037Z,99421.41
2018-04-11T00:09:51.572Z,99423.67
2018-04-11T00:12:19.077Z,99415.92
2018-04-11T00:14:46.553Z,99413.76
2018-04-11T00:17:14.072Z,99417.26
2018-04-11T00:19:41.564Z,99407.37
2018-04-11T00:22:09.037Z,99412.30
2018-04-11T00:24:36.558Z,99406.02
2018-04-11T00:27:04.061Z,99413.30
2018-04-11T00:29:31.541Z,99414.78
2018-04-11T00:31:59.049Z,99412.84
2018-04-11T00:34:26.561Z,99405.95
2018-04-11T00:36:54.032Z,99397.42
2018-04-11T00:39:21.565Z,99394.03
2018-04-11T00:41:49.053Z,99395.24
2018-04-11T00:44:16.581Z,99396.54
2018-04-11T00:46:44.101Z,99397.21
2018-04-11T00:49:11.605Z,99392.78
2018-04-11T00:51:39.120Z,99386.77
2018-04-11T00:54:06.777Z,99396.38
2018-04-11T00:56:34.252Z,99391.91
2018-04-11T00:59:01.733Z,99389.41
2018-04-11T01:01:29.234Z,99390.47
2018-04-11T01:03:56.720Z,99387.54
2018-04-11T01:06:24.553Z,99393.00
2018-04-11T01:08:52.065Z,99399.27
2018-04-11T01:11:19.541Z,99394.48
2018-04-11T01:13:47.051Z,99395.57
2018-04-11T01:16:14.529Z,99394.44
2018-04-11T01:18:42.289Z,99398.44
2018-04-11T01:21:09.769Z,99396.91
2018-04-11T01:23:37.241Z,99393.08
2018-04-11T01:26:04.829Z,99387.95
2018-04-11T01:28:32.313Z,99391.63
2018-04-11T01:31:00.160Z,99395.50
2018-04-11T01:33:27.641Z,99399.71
2018-04-11T01:35:55.129Z,99399.72
2018-04-11T01:38:22.634Z,99393.53
2018-04-11T01:40:50.113Z,99390.99
2018-04-11T01:43:17.621Z,99384.27
2018-04-11T01:45:45.102Z,99381.70
2018-04-11T01:48:12.585Z,99376.66
2018-04-11T01:50:40.091Z,99384.99
2018-04-11T01:53:07.570Z,99383.50
2018-04-11T01:55:35.450Z,99381.73
2018-04-11T01:58:02.950Z,99378.66
2018-04-11T02:00:30.453Z,99381.82
2018-04-11T02:02:57.989Z,99382.75
2018-04-11T02:05:25.472Z,99384.13
2018-04-11T02:07:53.225Z,99384.22
2018-04-11T02:10:20.728Z,99382.59
2018-04-11T02:12:48.228Z,99378.80
2018-04-11T02:15:15.769Z,99376.58
2018-04-11T02:17:43.250Z,99373.09
2018-04-11T02:20:10.770Z,99366.36
2018-04-11T02:22:38.248Z,99370.36
2018-04-11T02:25:05.753Z,99361.93
2018-04-11T02:27:33.277Z,99367.33
2018-04-11T02:30:00.777Z,99371.42
2018-04-11T02:32:28.638Z,99364.67
2018-04-11T02:34:56.129Z,99363.55
2018-04-11T02:37:23.605Z,99359.77
2018-04-11T02:39:51.126Z,99361.64
2018-04-11T02:42:18.601Z,99363.22
2018-04-11T02:44:46.321Z,99370.80
2018-04-11T02:47:13.851Z,99369.41
2018-04-11T02:49:41.297Z,99366.43
2018-04-11T02:52:08.821Z,99370.16
2018-04-11T02:54:36.324Z,99373.06
2018-04-11T02:57:04.041Z,99368.92
2018-04-11T02:59:31.529Z,99374.39
2018-04-11T03:01:59.002Z,99382.13
2018-04-11T03:04:27.456Z,99380.47
2018-04-11T03:06:54.933Z,99383.95
2018-04-11T03:09:22.531Z,99384.93
2018-04-11T03:11:49.978Z,99384.06
2018-04-11T03:14:17.466Z,99393.37
2018-04-11T03:16:44.969Z,99401.70
2018-04-11T03:19:12.445Z,99402.28
2018-04-11T03:21:40.397Z,99409.36
2018-04-11T03:24:08.121Z,99408.86
2018-04-11T03:26:35.601Z,99409.29
2018-04-11T03:29:03.101Z,99410.77
2018-04-11T03:31:30.626Z,99417.70
2018-04-11T03:33:58.151Z,99408.89
2018-04-11T03:36:27.285Z,99412.23
2018-04-11T03:38:54.765Z,99413.92
2018-04-11T03:41:22.268Z,99413.86
2018-04-11T03:43:49.760Z,99411.66
2018-04-11T03:46:17.425Z,99414.86
2018-04-11T03:48:44.900Z,99418.48
2018-04-11T03:51:12.381Z,99419.50
2018-04-11T03:53:39.881Z,99424.45
2018-04-11T03:56:07.361Z,99417.70
2018-04-11T03:58:34.880Z,99427.11
2018-04-11T04:01:02.378Z,99424.95
2018-04-11T04:03:29.865Z,99424.52
2018-04-11T04:05:57.387Z,99429.50
2018-04-11T04:08:24.898Z,99431.84
2018-04-11T04:10:52.529Z,99436.45
2018-04-11T04:16:31.108Z,99438.25
2018-04-11T04:19:10.445Z,99438.52
2018-04-11T04:21:38.222Z,99447.74
2018-04-11T04:24:05.700Z,99446.73
2018-04-11T04:26:33.173Z,99446.63
2018-04-11T04:29:00.681Z,99449.22
2018-04-11T04:31:28.157Z,99446.70
2018-04-11T04:33:55.685Z,99452.53
2018-04-11T04:36:23.181Z,99448.02
2018-04-11T04:38:50.652Z,99446.05
2018-04-11T04:41:18.160Z,99445.57
2018-04-11T04:43:45.642Z,99446.91
2018-04-11T04:46:13.502Z,99437.41
2018-04-11T04:48:40.984Z,99444.87
2018-04-11T04:51:08.503Z,99438.53
2018-04-11T04:53:36.030Z,99436.59
2018-04-11T04:56:03.506Z,99430.37
2018-04-11T04:58:31.029Z,99431.53
2018-04-11T05:00:58.549Z,99432.83
2018-04-11T05:03:26.040Z,99436.63
2018-04-11T05:05:53.561Z,99436.02
2018-04-11T05:08:21.033Z,99434.95
2018-04-11T05:10:48.738Z,99436.37
2018-04-11T05:13:16.233Z,99435.08
2018-04-11T05:15:43.721Z,99430.16
2018-04-11T05:18:11.230Z,99437.17
2018-04-11T05:20:38.728Z,99439.22
2018-04-11T05:23:06.393Z,99444.98
2018-04-11T05:25:33.880Z,99446.28
2018-04-11T05:28:01.357Z,99450.98
2018-04-11T05:30:28.882Z,99446.47
2018-04-11T05:32:56.395Z,99456.23
2018-04-11T05:35:24.172Z,99452.55
2018-04-11T05:37:51.648Z,99457.56
2018-04-11T05:40:19.135Z,99460.52
2018-04-11T05:42:46.794Z,99460.37
2018-04-11T05:45:14.269Z,99458.06
2018-04-11T05:47:41.904Z,99463.16
2018-04-11T05:50:09.390Z,99462.11
2018-04-11T05:52:36.879Z,99471.06
2018-04-11T05:55:04.384Z,99466.85
2018-04-11T05:57:31.862Z,99461.19
2018-04-11T05:59:59.574Z,99464.61
2018-04-11T06:02:27.078Z,99473.06
2018-04-11T06:04:54.573Z,99467.45
2018-04-11T06:07:22.073Z,99465.52
2018-04-11T06:09:49.601Z,99466.20
2018-04-11T06:12:17.130Z,99462.16
2018-04-11T06:14:44.609Z,99466.44
2018-04-11T06:17:12.122Z,99467.30
2018-04-11T06:19:39.657Z,99465.68
2018-04-11T06:22:07.145Z,99466.55
2018-04-11T06:24:34.781Z,99472.08
2018-04-11T06:27:02.265Z,99473.52
2018-04-11T06:29:29.763Z,99471.91
2018-04-11T06:31:57.272Z,99479.50
2018-04-11T06:34:24.802Z,99474.70
2018-04-11T06:36:52.349Z,99480.72
2018-04-11T06:39:19.861Z,99483.23
2018-04-11T06:41:47.345Z,99478.43
2018-04-11T06:44:14.849Z,99482.01
2018-04-11T06:46:42.345Z,99493.97
2018-04-11T06:49:10.289Z,99491.92
2018-04-11T06:51:37.789Z,99495.82
2018-04-11T06:54:05.309Z,99498.20
2018-04-11T06:56:32.813Z,99490.20
2018-04-11T06:59:00.289Z,99487.70
2018-04-11T07:01:28.021Z,99494.05
2018-04-11T07:03:55.512Z,99495.55
2018-04-11T07:06:22.997Z,99487.92
2018-04-11T07:08:50.513Z,99491.55
2018-04-11T07:11:18.021Z,99493.14
2018-04-11T07:13:45.678Z,99487.88
2018-04-11T07:16:13.161Z,99489.17
2018-04-11T07:18:40.647Z,99480.69
2018-04-11T07:21:08.158Z,99480.80
2018-04-11T07:23:35.634Z,99483.28
2018-04-11T07:26:03.463Z,99483.18
2018-04-11T07:28:31.142Z,99484.28
2018-04-11T07:30:58.617Z,99483.11
2018-04-11T07:33:26.196Z,99483.11
2018-04-11T07:35:53.669Z,99489.05
2018-04-11T07:38:21.192Z,99485.98
2018-04-11T07:40:48.665Z,99484.56
2018-04-11T07:43:16.141Z,99491.59
2018-04-11T07:45:43.645Z,99486.12
2018-04-11T07:48:11.125Z,99489.15
2018-04-11T07:50:38.841Z,99489.43
2018-04-11T07:53:06.336Z,99489.70
2018-04-11T07:55:33.815Z,99497.33
2018-04-11T07:58:01.329Z,99497.00
2018-04-11T08:00:28.817Z,99494.98
2018-04-11T08:02:56.524Z,99503.52
2018-04-11T08:05:24.041Z,99496.16
2018-04-11T08:07:51.538Z,99493.34
2018-04-11T08:10:19.041Z,99499.16
2018-04-11T08:12:46.555Z,99499.48
2018-04-11T08:15:14.493Z,99502.84
2018-04-11T08:17:41.994Z,99505.65
2018-04-11T08:20:09.487Z,99508.25
2018-04-11T08:22:37.189Z,99508.73
2018-04-11T08:25:04.679Z,99512.87
2018-04-11T08:27:32.353Z,99512.23
2018-04-11T08:29:59.824Z,99517.32
2018-04-11T08:32:27.309Z,99518.73
2018-04-11T08:34:54.810Z,99519.55
2018-04-11T08:37:22.317Z,99513.95
2018-04-11T08:39:49.844Z,99514.02
2018-04-11T08:42:17.334Z,99510.66
2018-04-11T08:44:44.828Z,99507.52
2018-04-11T08:47:12.729Z,99510.83
2018-04-11T08:49:40.213Z,99519.22
2018-04-11T08:52:08.126Z,99519.02
2018-04-11T08:54:35.618Z,99524.70
2018-04-11T08:57:03.116Z,99519.80
2018-04-11T08:59:30.613Z,99526.77
2018-04-11T09:01:58.097Z,99532.78
2018-04-11T09:04:25.937Z,99527.56
2018-04-11T09:06:53.553Z,99527.28
2018-04-11T09:09:21.037Z,99531.66
2018-04-11T09:11:48.548Z,99533.66
2018-04-11T09:14:16.020Z,99530.10
2018-04-11T09:16:43.793Z,99531.50
2018-04-11T09:19:11.308Z,99527.66
2018-04-11T09:21:38.786Z,99522.72
2018-04-11T09:24:06.288Z,99519.58
2018-04-11T09:26:33.800Z,99517.31
2018-04-11T09:29:01.449Z,99513.04
2018-04-11T09:31:28.943Z,99513.25
2018-04-11T09:33:56.420Z,99518.13
2018-04-11T09:36:23.934Z,99509.09
2018-04-11T09:38:51.436Z,99508.97
2018-04-11T09:41:19.111Z,99510.92
2018-04-11T09:43:46.613Z,99504.20
2018-04-11T09:46:14.094Z,99497.73
2018-04-11T09:48:41.621Z,99499.11
2018-04-11T09:51:09.109Z,99498.35
2018-04-11T09:53:36.633Z,99492.45
2018-04-11T09:56:04.113Z,99497.55
2018-04-11T09:58:31.609Z,99481.66
2018-04-11T10:00:59.116Z,99491.59
2018-04-11T10:03:26.589Z,99490.83
2018-04-11T10:05:54.328Z,99490.72
2018-04-11T10:08:21.810Z,99476.99
2018-04-11T10:10:49.290Z,99479.04
2018-04-11T10:13:16.793Z,99468.98
2018-04-11T10:15:44.273Z,99476.42
2018-04-11T10:18:11.797Z,99469.63
2018-04-11T10:20:39.295Z,99470.77
2018-04-11T10:23:06.816Z,99469.94
2018-04-11T10:25:34.324Z,99462.09
2018-04-11T10:28:01.821Z,99461.55
2018-04-11T10:30:29.341Z,99453.29
2018-04-11T10:32:56.829Z,99455.36
2018-04-11T10:35:24.335Z,99443.53
2018-04-11T10:37:51.837Z,99446.13
2018-04-11T10:40:19.337Z,99444.97
2018-04-11T10:42:46.992Z,99442.15
2018-04-11T10:45:14.489Z,99437.22
2018-04-11T10:47:41.976Z,99444.50
2018-04-11T10:50:09.793Z,99436.87
2018-04-11T10:52:37.271Z,99438.18
2018-04-11T10:55:04.941Z,99444.49
2018-04-11T10:57:32.426Z,99439.47
2018-04-11T10:59:59.904Z,99440.87
2018-04-11T11:02:27.439Z,99439.84
2018-04-11T11:04:54.925Z,99438.98
2018-04-11T11:07:22.609Z,99437.25
2018-04-11T11:09:50.100Z,99435.28
2018-04-11T11:12:17.589Z,99433.41
2018-04-11T11:14:45.097Z,99426.96
2018-04-11T11:17:12.579Z,99436.14
2018-04-11T11:19:51.855Z,99431.63
2018-04-11T11:22:19.333Z,99433.77
2018-04-11T11:24:46.821Z,99434.38
2018-04-11T11:27:14.629Z,99425.73
2018-04-11T11:29:42.109Z,99432.76
2018-04-11T11:32:09.983Z,99424.81
2018-04-11T11:34:37.477Z,99428.70
2018-04-11T11:37:07.081Z,99418.98
2018-04-11T11:39:34.610Z,99423.89
2018-04-11T11:42:02.099Z,99412.47
2018-04-11T11:44:29.629Z,99413.30
2018-04-11T11:46:57.109Z,99406.86
2018-04-11T11:49:24.590Z,99401.38
2018-04-11T11:51:52.121Z,99404.18
2018-04-11T11:54:19.597Z,99400.85
2018-04-11T11:56:47.243Z,99404.44
2018-04-11T11:59:14.742Z,99409.06
2018-04-11T12:01:42.225Z,99399.52
2018-04-11T12:04:09.766Z,99393.17
2018-04-11T12:06:37.265Z,99390.40
2018-04-11T12:09:05.113Z,99389.68
2018-04-11T12:11:32.594Z,99391.25
2018-04-11T12:14:00.081Z,99388.59
2018-04-11T12:16:27.595Z,99391.33
2018-04-11T12:18:55.101Z,99384.00
2018-04-11T12:21:22.689Z,99379.84
2018-04-11T12:23:50.169Z,99375.69
2018-04-11T12:26:17.645Z,99375.01
2018-04-11T12:28:45.178Z,99382.36
2018-04-11T12:31:12.681Z,99378.41
2018-04-11T12:33:40.204Z,99378.84
2018-04-11T12:36:07.681Z,99372.64
2018-04-11T12:38:35.161Z,99378.01
2018-04-11T12:41:02.680Z,99366.92
2018-04-11T12:43:30.169Z,99367.66
2018-04-11T12:45:57.730Z,99365.25
2018-04-11T12:48:25.253Z,99368.87
2018-04-11T12:50:52.774Z,99368.18
2018-04-11T12:53:20.277Z,99362.28
2018-04-11T12:55:47.791Z,99361.26
2018-04-11T12:58:15.416Z,99362.76
2018-04-11T13:00:42.920Z,99354.67
2018-04-11T13:03:10.413Z,99361.25
2018-04-11T13:05:37.941Z,99354.52
2018-04-11T13:08:05.433Z,99346.13
2018-04-11T13:10:32.969Z,99335.64
2018-04-11T13:13:00.501Z,99334.06
2018-04-11T13:15:27.985Z,99326.39
2018-04-11T13:17:55.490Z,99328.47
2018-04-11T13:20:22.970Z,99322.11
2018-04-11T13:22:50.746Z,99321.75
2018-04-11T13:25:18.225Z,99321.08
2018-04-11T13:27:45.786Z,99317.44
2018-04-11T13:30:13.369Z,99315.77
2018-04-11T13:32:40.842Z,99305.56
2018-04-11T13:35:08.697Z,99310.98
2018-04-11T13:37:36.193Z,99303.95
2018-04-11T13:40:03.700Z,99307.95
2018-04-11T13:42:31.336Z,99299.75
2018-04-11T13:44:59.248Z,99295.16
2018-04-11T13:47:26.778Z,99303.29
2018-04-11T13:49:54.297Z,99295.90
2018-04-11T13:52:21.804Z,99288.98
2018-04-11T13:54:49.320Z,99292.79
2018-04-11T13:57:16.816Z,99296.95
2018-04-11T13:59:44.325Z,99292.77
2018-04-11T14:02:11.805Z,99294.04
2018-04-11T14:04:39.541Z,99296.15
2018-04-11T14:07:07.057Z,99292.77
2018-04-11T14:09:34.737Z,99289.97
2018-04-11T14:12:02.485Z,99290.34
2018-04-11T14:14:29.992Z,99287.23
2018-04-11T14:16:57.493Z,99289.84
2018-04-11T14:19:25.008Z,99286.74
2018-04-11T14:21:52.513Z,99289.83
2018-04-11T14:24:20.140Z,99283.19
2018-04-11T14:26:47.621Z,99285.87
2018-04-11T14:29:15.107Z,99283.25
2018-04-11T14:31:42.633Z,99284.11
2018-04-11T14:34:10.150Z,99278.91
2018-04-11T14:36:38.069Z,99277.98
2018-04-11T14:39:06.369Z,99276.70
2018-04-11T14:41:33.858Z,99279.82
2018-04-11T14:44:01.371Z,99272.73
2018-04-11T14:46:28.853Z,99268.52
2018-04-11T14:48:56.364Z,99265.09
2018-04-11T14:51:23.893Z,99258.16
2018-04-11T14:53:51.374Z,99263.48
2018-04-11T14:56:18.875Z,99264.19
2018-04-11T14:58:46.417Z,99264.38
2018-04-11T15:01:14.245Z,99266.20
2018-04-11T15:03:41.766Z,99255.51
2018-04-11T15:06:09.246Z,99264.56
2018-04-11T15:08:36.787Z,99265.25
2018-04-11T15:11:04.269Z,99258.56
2018-04-11T15:13:31.905Z,99260.42
2018-04-11T15:15:59.496Z,99263.13
2018-04-11T15:18:26.964Z,99252.87
2018-04-11T15:20:54.477Z,99250.44
2018-04-11T15:23:22.012Z,99251.27
2018-04-11T15:25:49.522Z,99254.03
2018-04-11T15:28:17.040Z,99246.03
2018-04-11T15:30:44.545Z,99245.81
2018-04-11T15:33:12.061Z,99240.73
2018-04-11T15:35:39.581Z,99236.36
2018-04-11T15:38:07.424Z,99233.70
2018-04-11T15:40:34.912Z,99229.51
2018-04-11T15:43:02.514Z,99220.79
2018-04-11T15:45:30.041Z,99227.00
2018-04-11T15:47:57.556Z,99223.98
2018-04-11T15:50:25.114Z,99218.95
2018-04-11T15:52:52.636Z,99225.84
2018-04-11T15:55:20.125Z,99220.80
2018-04-11T15:57:47.642Z,99217.25
2018-04-11T16:00:15.149Z,99217.71
2018-04-11T16:02:42.674Z,99223.03
2018-04-11T16:05:10.277Z,99220.70
2018-04-11T16:07:37.837Z,99220.89
2018-04-11T16:10:05.354Z,99216.46
2018-04-11T16:12:33.144Z,99220.74
2018-04-11T16:15:00.917Z,99221.02
2018-04-11T16:17:28.417Z,99213.48
2018-04-11T16:19:55.937Z,99208.64
2018-04-11T16:22:23.451Z,99207.34
2018-04-11T16:24:50.941Z,99201.05
2018-04-11T16:27:18.841Z,99204.38
2018-04-11T16:29:46.335Z,99200.59
2018-04-11T16:32:13.814Z,99195.79
2018-04-11T16:34:41.342Z,99191.02
2018-04-11T16:37:08.848Z,99198.97
2018-04-11T16:39:36.605Z,99195.01
2018-04-11T16:42:04.118Z,99193.06
2018-04-11T16:44:31.618Z,99188.34
2018-04-11T16:46:59.119Z,99182.62
2018-04-11T16:49:26.597Z,99183.47
2018-04-11T16:51:54.361Z,99178.81
2018-04-11T16:54:21.840Z,99179.61
2018-04-11T16:56:49.329Z,99184.33
2018-04-11T16:59:16.880Z,99175.44
2018-04-11T17:01:44.365Z,99180.22
2018-04-11T17:04:11.927Z,99174.23
2018-04-11T17:06:39.409Z,99174.41
2018-04-11T17:09:06.899Z,99175.77
2018-04-11T17:11:34.431Z,99165.06
2018-04-11T17:14:01.933Z,99172.83
2018-04-11T17:16:29.605Z,99169.45
2018-04-11T17:18:57.109Z,99170.69
2018-04-11T17:21:36.606Z,99170.37
2018-04-11T17:24:15.975Z,99173.55
2018-04-11T17:26:55.412Z,99173.84
2018-04-11T17:29:34.770Z,99171.70
2018-04-11T17:32:02.310Z,99165.71
2018-04-11T17:34:29.788Z,99164.84
2018-04-11T17:36:57.822Z,99158.25
2018-04-11T17:39:25.326Z,99159.75
2018-04-11T17:41:52.878Z,99155.81
2018-04-11T17:44:20.474Z,99159.49
2018-04-11T17:46:47.975Z,99159.20
2018-04-11T17:49:15.650Z,99157.27
2018-04-11T17:51:43.213Z,99165.31
2018-04-11T17:54:10.901Z,99165.48
2018-04-11T17:56:39.377Z,99165.48
2018-04-11T17:59:06.964Z,99162.47
2018-04-11T18:01:34.848Z,99164.52
2018-04-11T18:04:02.380Z,99164.36
2018-04-11T18:06:30.184Z,99168.44
2018-04-11T18:08:58.083Z,99169.41
2018-04-11T18:11:25.860Z,99170.91
2018-04-11T18:13:53.476Z,99166.64
2018-04-11T18:16:21.525Z,99164.26
2018-04-11T18:18:49.185Z,99166.62
2018-04-11T18:21:17.170Z,99163.83
2018-04-11T18:23:45.055Z,99165.92
2018-04-11T18:26:13.426Z,99170.19
2018-04-11T18:28:41.309Z,99166.30
2018-04-11T18:31:09.306Z,99165.49
2018-04-11T18:33:38.293Z,99167.69
2018-04-11T18:36:06.706Z,99163.66
2018-04-11T18:38:35.388Z,99169.77
2018-04-11T18:41:04.819Z,99166.83
2018-04-11T18:43:34.369Z,99168.31
2018-04-11T18:46:03.031Z,99164.67
2018-04-11T18:48:32.434Z,99162.15
2018-04-11T18:51:01.002Z,99161.67
2018-04-11T18:53:29.199Z,99160.02
2018-04-11T18:55:57.445Z,99159.02
2018-04-11T18:58:26.410Z,99151.79
2018-04-11T19:00:55.340Z,99158.43
2018-04-11T19:03:23.925Z,99156.01
2018-04-11T19:05:52.417Z,99151.03
2018-04-11T19:08:20.832Z,99151.44
2018-04-11T19:10:49.517Z,99148.82
2018-04-11T19:13:18.235Z,99145.55
2018-04-11T19:15:47.226Z,99149.86
2018-04-11T19:18:16.595Z,99144.36
2018-04-11T19:20:45.065Z,99146.66
2018-04-11T19:23:13.854Z,99150.84
2018-04-11T19:25:42.945Z,99142.70
2018-04-11T19:28:12.035Z,99143.09
2018-04-11T19:30:40.640Z,99144.70
2018-04-11T19:33:09.251Z,99140.64
2018-04-11T19:35:38.140Z,99140.66
2018-04-11T19:38:06.864Z,99135.27
2018-04-11T19:40:36.242Z,99134.14
2018-04-11T19:43:05.569Z,99134.84
2018-04-11T19:45:34.378Z,99137.62
2018-04-11T19:48:03.290Z,99130.30
2018-04-11T19:50:32.798Z,99126.34
2018-04-11T19:53:01.364Z,99127.30
2018-04-11T19:55:29.776Z,99123.89
2018-04-11T19:57:58.792Z,99115.04
2018-04-11T20:00:27.116Z,99117.72
2018-04-11T20:02:55.478Z,99112.69
2018-04-11T20:05:24.150Z,99117.41
2018-04-11T20:07:53.191Z,99110.91
2018-04-11T20:10:21.652Z,99108.45
2018-04-11T20:12:50.137Z,99105.66
2018-04-11T20:15:18.765Z,99106.58
2018-04-11T20:17:48.468Z,99108.95
2018-04-11T20:20:17.567Z,99106.32
2018-04-11T20:22:45.959Z,99112.72
2018-04-11T20:25:13.939Z,99111.84
2018-04-11T20:27:42.751Z,99110.81
2018-04-11T20:30:10.847Z,99107.25
2018-04-11T20:32:38.821Z,99099.16
2018-04-11T20:35:06.801Z,99100.17
2018-04-11T20:37:34.495Z,99098.75
2018-04-11T20:40:02.146Z,99092.68
2018-04-11T20:42:29.972Z,99089.92
2018-04-11T20:44:57.498Z,99084.08
2018-04-11T20:47:24.986Z,99082.92
2018-04-11T20:49:52.533Z,99083.27
2018-04-11T20:52:20.204Z,99080.53
2018-04-11T20:54:47.992Z,99076.75
2018-04-11T20:57:15.499Z,99075.02
2018-04-11T20:59:42.995Z,99074.64
2018-04-11T21:02:10.526Z,99076.30
2018-04-11T21:04:38.067Z,99074.23
2018-04-11T21:07:05.830Z,99070.95
2018-04-11T21:09:33.318Z,99068.25
2018-04-11T21:12:00.812Z,99069.14
2018-04-11T21:14:28.362Z,99068.67
2018-04-11T21:16:55.852Z,99067.58
2018-04-11T21:19:23.596Z,99061.80
2018-04-11T21:21:51.071Z,99066.98
2018-04-11T21:24:18.594Z,99055.73
2018-04-11T21:26:46.117Z,99056.45
2018-04-11T21:29:13.639Z,99055.37
2018-04-11T21:31:41.338Z,99057.69
2018-04-11T21:34:08.901Z,99058.52
2018-04-11T21:36:36.383Z,99047.98
2018-04-11T21:39:03.893Z,99049.68
2018-04-11T21:41:31.368Z,99050.27
2018-04-11T21:43:58.979Z,99059.38
2018-04-11T21:46:26.453Z,99057.28
2018-04-11T21:48:53.933Z,99053.69
2018-04-11T21:51:21.445Z,99047.48
2018-04-11T21:53:48.943Z,99046.83
2018-04-11T21:56:16.461Z,99047.48
2018-04-11T21:58:44.047Z,99040.38
2018-04-11T22:01:11.541Z,99033.70
2018-04-11T22:03:39.053Z,99033.58
2018-04-11T22:06:06.550Z,99027.92
2018-04-11T22:08:34.169Z,99025.81
2018-04-11T22:11:01.649Z,99032.51
2018-04-11T22:13:29.166Z,99026.13
2018-04-11T22:15:56.697Z,99028.34
2018-04-11T22:18:24.181Z,99026.56
2018-04-11T22:20:51.717Z,99020.74
2018-04-11T22:23:19.193Z,99020.08
2018-04-11T22:25:46.677Z,99023.26
2018-04-11T22:28:14.189Z,99016.64
2018-04-11T22:30:41.669Z,99011.67
2018-04-11T22:33:09.205Z,99013.89
2018-04-11T22:35:36.685Z,99009.68
2018-04-11T22:38:04.160Z,99004.42
2018-04-11T22:40:31.677Z,99000.45
2018-04-11T22:42:59.151Z,98992.83
2018-04-11T22:45:27.094Z,98986.11
2018-04-11T22:47:54.569Z,98985.21
2018-04-11T22:50:22.131Z,98979.69
2018-04-11T22:52:49.653Z,98979.91
2018-04-11T22:55:17.125Z,98975.44
2018-04-11T22:57:44.668Z,98975.17
2018-04-11T23:00:12.159Z,98972.30
2018-04-11T23:02:39.653Z,98968.09
2018-04-11T23:05:07.184Z,98961.05
2018-04-11T23:07:34.657Z,98959.05
2018-04-11T23:10:02.320Z,98946.61
2018-04-11T23:12:29.875Z,98944.97
2018-04-11T23:14:57.357Z,98937.41
2018-04-11T23:17:24.873Z,98939.84
2018-04-11T23:19:52.361Z,98945.95
2018-04-11T23:22:19.877Z,98937.92
2018-04-11T23:24:47.375Z,98932.08
2018-04-11T23:27:14.853Z,98932.81
2018-04-11T23:29:42.358Z,98922.51
2018-04-11T23:32:09.845Z,98930.53
2018-04-11T23:34:37.681Z,98932.04
2018-04-11T23:37:05.185Z,98920.66
2018-04-11T23:39:32.664Z,98922.93
2018-04-11T23:42:00.177Z,98918.75
2018-04-11T23:44:27.673Z,98911.00
2018-04-11T23:46:55.192Z,98907.90
2018-04-11T23:49:22.669Z,98904.79
2018-04-11T23:51:50.149Z,98903.32
2018-04-11T23:54:17.653Z,98894.10
2018-04-11T23:56:45.131Z,98898.09
2018-04-11T23:59:12.898Z,98892.33
